Latest Weather Observations for Cerberus

IDV60901

Issued at 1:41 pm EST Wednesday 27 July 2016 (issued every 10 minutes, with the page automatically refreshed every 10 minutes)

About weather observations | Map of Melbourne area stations | Latest observations for Melbourne area | Other Formats
Station Details ID: 086361 Name: CERBERUS Lat: -38.36 Lon: 145.18 Height: 12.69 m
Data from the previous 72 hours. | See also: Recent months at Cerberus
Date/Time
EST
Temp
°C
App
Temp
°C
Dew
Point
°C
Rel
Hum
%
Delta-T
°C
Wind Press
QNH
hPa
Press
MSL
hPa
Rain since
9am
mm
Dir  Spd
km/h
Gust
km/h
Spd
kts
Gust
kts
27/01:30pm 11.6 5.7 3.9 59 3.4 W 24 39 13 21 1015.2 1015.2 0.0
27/01:00pm 10.2 5.6 5.6 73 2.1 W 19 32 10 17 1015.3 1015.3 0.0
27/12:30pm 10.3 7.1 5.1 70 2.4 WSW 11 19 6 10 1015.2 1015.2 0.0
27/12:00pm 11.0 5.9 4.2 63 3.0 WSW 20 30 11 16 1014.9 1014.9 0.0
27/11:30am 10.8 6.7 6.2 73 2.1 WSW 17 24 9 13 1014.8 1014.8 0.0
27/11:00am 11.2 7.1 4.4 63 3.1 WSW 15 24 8 13 1014.4 1014.4 0.0
27/10:30am 10.4 6.6 6.0 74 2.0 SW 15 22 8 12 1014.0 1014.0 0.0
27/10:00am 11.6 7.4 5.7 67 2.7 SW 17 24 9 13 1013.4 1013.5 0.0
27/09:30am 10.0 3.9 4.6 69 2.4 SW 26 43 14 23 1012.9 1013.0 0.0
27/09:00am 10.2 5.2 4.8 69 2.4 SW 20 33 11 18 1011.8 1011.9 1.4
27/08:30am 10.5 6.3 5.9 73 2.1 SW 17 26 9 14 1010.9 1011.0 1.4
27/08:00am 10.2 5.1 5.8 74 2.0 SW 22 35 12 19 1009.9 1010.0 1.4
27/07:30am 9.9 5.1 7.2 83 1.3 SW 22 39 12 21 1009.2 1009.3 1.4
27/07:00am 9.3 5.0 6.9 85 1.1 WNW 19 32 10 17 1008.0 1008.1 0.0
27/06:30am 9.4 5.4 6.7 83 1.3 WNW 17 28 9 15 1007.2 1007.3 0.0
27/06:00am 9.5 5.1 6.4 81 1.4 NW 19 26 10 14 1006.8 1006.9 0.0
27/05:30am 9.6 5.1 6.0 78 1.7 NW 19 32 10 17 1006.3 1006.4 0.0
27/05:00am 9.5 5.0 5.9 78 1.7 NW 19 33 10 18 1005.7 1005.8 0.0
27/04:30am 9.2 5.8 5.8 79 1.6 NW 13 20 7 11 1005.5 1005.6 0.0
27/04:00am 9.3 5.4 5.5 77 1.7 NW 15 24 8 13 1005.2 1005.3 0.0
27/03:30am 9.3 5.1 5.5 77 1.7 NNW 17 30 9 16 1005.0 1005.1 0.0
27/03:00am 9.2 4.9 5.2 76 1.8 NNW 17 30 9 16 1004.6 1004.7 0.0
27/02:30am 8.9 4.5 4.9 76 1.8 NNW 17 32 9 17 1004.5 1004.6 0.0
27/02:00am 9.5 5.5 4.7 72 2.2 N 15 28 8 15 1004.6 1004.7 0.0
27/01:30am 9.7 5.3 4.5 70 2.3 N 17 35 9 19 1004.5 1004.6 0.0
27/01:00am 9.7 5.2 4.3 69 2.4 NNW 17 30 9 16 1004.8 1004.9 0.0
27/12:30am 9.6 5.1 4.2 69 2.4 NNW 17 33 9 18 1004.8 1004.9 0.0
27/12:00am 9.8 4.7 4.0 67 2.6 N 20 41 11 22 1004.6 1004.7 0.0
 
Date/Time
EST
Temp
°C
App
Temp
°C
Dew
Point
°C
Rel
Hum
%
Delta-T
°C
Wind Press
QNH
hPa
Press
MSL
hPa
Rain since
9am
mm
Dir  Spd
km/h
Gust
km/h
Spd
kts
Gust
kts
26/11:30pm 10.0 4.1 4.0 66 2.6 N 24 46 13 25 1004.6 1004.7 0.0
26/11:00pm 9.5 4.4 4.1 69 2.4 N 20 43 11 23 1004.8 1004.9 0.0
26/10:30pm 9.4 4.4 3.8 68 2.4 N 19 35 10 19 1005.1 1005.2 0.0
26/10:00pm 9.4 4.3 4.0 69 2.4 N 20 37 11 20 1005.2 1005.3 0.0
26/09:30pm 9.3 4.4 4.3 71 2.2 N 19 32 10 17 1005.5 1005.6 0.0
26/09:00pm 9.0 5.2 4.0 71 2.2 N 13 30 7 16 1005.8 1005.9 0.0
26/08:30pm 9.2 5.0 4.0 70 2.3 N 15 33 8 18 1006.0 1006.1 0.0
26/08:00pm 9.4 5.2 4.0 69 2.4 N 15 28 8 15 1006.4 1006.5 0.0
26/07:30pm 9.1 4.9 3.9 70 2.3 N 15 32 8 17 1006.7 1006.8 0.0
26/07:00pm 9.3 4.1 3.7 68 2.4 N 20 37 11 20 1006.6 1006.7 0.0
26/06:30pm 9.4 5.1 3.4 66 2.6 N 15 33 8 18 1006.8 1006.9 0.0
26/06:00pm 9.3 6.8 3.7 68 2.4 N 6 22 3 12 1007.1 1007.2 0.0
26/05:30pm 9.2 5.7 3.6 68 2.4 N 11 24 6 13 1007.3 1007.4 0.0
26/05:00pm 9.3 6.8 3.5 67 2.5 N 6 20 3 11 1007.3 1007.4 0.0
26/04:30pm 9.6 6.0 3.1 64 2.8 N 11 24 6 13 1007.6 1007.7 0.0
26/04:00pm 9.7 5.4 3.2 64 2.8 NNW 15 32 8 17 1008.0 1008.1 0.0
26/03:30pm 9.6 4.9 3.1 64 2.8 NNW 17 32 9 17 1008.5 1008.6 0.0
26/03:00pm 9.5 5.2 3.5 66 2.6 NNW 15 30 8 16 1009.0 1009.1 0.0
26/02:30pm 9.4 4.7 2.9 64 2.8 NNW 17 28 9 15 1009.3 1009.4 0.0
26/02:00pm 9.4 3.7 2.7 63 2.9 NNW 22 39 12 21 1009.3 1009.4 0.0
26/01:30pm 9.4 4.3 2.9 64 2.8 NNW 19 35 10 19 1009.9 1010.0 0.0
26/01:00pm 9.3 3.6 2.6 63 2.8 NNW 22 39 12 21 1010.4 1010.5 0.0
26/12:30pm 9.0 3.3 2.6 64 2.7 NW 22 44 12 24 1011.0 1011.1 0.0
26/12:00pm 9.1 3.1 3.1 66 2.6 NNW 24 41 13 22 1011.3 1011.4 0.0
26/11:30am 9.1 4.0 3.1 66 2.6 NNW 19 33 10 18 1011.4 1011.5 0.0
26/11:00am 9.0 3.9 2.8 65 2.6 NW 19 33 10 18 1011.5 1011.6 0.0
26/10:30am 9.3 3.3 3.1 65 2.7 NNW 24 39 13 21 1011.4 1011.5 0.0
26/10:00am 8.8 3.1 2.8 66 2.5 NW 22 33 12 18 1011.2 1011.3 0.0
26/09:30am 8.6 2.5 2.8 67 2.5 NW 24 37 13 20 1011.3 1011.4 0.0
26/09:00am 8.6 2.9 2.8 67 2.5 NW 22 37 12 20 1011.1 1011.2 -
26/08:30am 7.9 2.6 3.2 72 2.0 NW 20 32 11 17 1010.8 1010.9 -
26/08:00am 7.1 1.8 2.8 74 1.8 NW 20 37 11 20 1010.6 1010.7 -
26/07:30am 7.1 1.4 2.8 74 1.8 NW 22 39 12 21 1010.5 1010.6 -
26/07:00am 7.0 1.2 2.5 73 1.9 NW 22 35 12 19 1010.1 1010.2 -
26/06:30am 7.0 0.9 2.5 73 1.9 NW 24 35 13 19 1009.6 1009.7 -
26/06:00am 7.3 0.4 2.4 71 2.0 NW 28 43 15 23 1009.3 1009.4 -
26/05:30am 7.4 1.6 2.5 71 2.0 WNW 22 41 12 22 1009.3 1009.4 -
26/05:00am 7.2 1.8 2.3 71 2.0 WNW 20 32 11 17 1008.8 1008.9 -
26/04:30am 7.3 1.5 2.4 71 2.0 NW 22 37 12 20 1008.4 1008.5 -
26/04:00am 7.5 1.3 2.2 69 2.2 WNW 24 39 13 21 1008.0 1008.1 -
26/03:30am 7.7 1.2 2.4 69 2.2 WNW 26 44 14 24 1008.2 1008.3 -
26/03:06am 7.8 0.9 2.5 69 2.2 WNW 28 50 15 27 1008.0 1008.1 -
26/03:00am 7.8 1.6 2.3 68 2.3 WNW 24 41 13 22 1008.0 1008.1 0.0
26/02:30am 7.9 0.9 2.2 67 2.4 NW 28 46 15 25 1007.4 1007.5 -
26/02:23am 7.8 0.9 2.5 69 2.2 NW 28 46 15 25 1007.2 1007.3 -
26/02:00am 7.5 1.0 2.4 70 2.1 NW 26 43 14 23 1007.2 1007.3 -
26/01:30am 7.6 0.3 2.5 70 2.1 WNW 30 56 16 30 1007.1 1007.2 -
26/01:00am 8.0 0.7 2.5 68 2.3 WNW 30 50 16 27 1006.9 1007.0 -
26/12:30am 7.9 1.0 2.4 68 2.3 WNW 28 48 15 26 1006.7 1006.8 -
26/12:06am 8.0 1.1 2.7 69 2.2 WNW 28 48 15 26 1006.0 1006.1 -
26/12:00am 7.7 1.6 3.0 72 2.0 WNW 24 46 13 25 1006.2 1006.3 -
 
Date/Time
EST
Temp
°C
App
Temp
°C
Dew
Point
°C
Rel
Hum
%
Delta-T
°C
Wind Press
QNH
hPa
Press
MSL
hPa
Rain since
9am
mm
Dir  Spd
km/h
Gust
km/h
Spd
kts
Gust
kts
25/11:30pm 7.9 0.7 2.8 70 2.1 WNW 30 52 16 28 1005.9 1006.0 -
25/11:00pm 8.4 0.8 2.8 68 2.4 WNW 32 50 17 27 1005.5 1005.6 -
25/10:41pm 8.7 1.8 2.7 66 2.5 WNW 28 48 15 26 1005.5 1005.6 -
25/10:30pm 8.8 1.2 3.0 67 2.5 WNW 32 48 17 26 1005.3 1005.4 -
25/10:01pm 9.3 1.2 3.1 65 2.7 WNW 35 54 19 29 1005.0 1005.1 -
25/10:00pm 9.3 1.2 3.3 66 2.6 WNW 35 50 19 27 1005.1 1005.2 -
25/09:30pm 9.3 2.6 3.5 67 2.5 WNW 28 48 15 26 1004.8 1004.9 -
25/09:03pm 9.4 1.9 3.2 65 2.7 WNW 32 56 17 30 1004.3 1004.4 -
25/09:00pm 9.4 1.9 3.2 65 2.7 WNW 32 44 17 24 1004.4 1004.5 7.0
25/08:30pm 9.5 1.5 3.9 68 2.5 WNW 35 54 19 29 1003.9 1004.0 -
25/08:00pm 10.1 1.9 4.7 69 2.4 WNW 37 61 20 33 1003.6 1003.6 -
25/07:42pm 10.0 2.8 5.0 71 2.3 NW 32 70 17 38 1003.2 1003.2 -
25/07:30pm 9.6 2.4 5.2 74 2.0 NW 32 52 17 28 1002.9 1002.9 -
25/07:15pm 9.2 2.8 5.4 77 1.7 NW 28 46 15 25 1002.6 1002.6 -
25/07:00pm 9.1 2.0 5.3 77 1.7 NW 32 48 17 26 1002.4 1002.4 -
25/06:30pm 8.6 0.4 6.4 86 1.0 WNW 39 57 21 31 1002.6 1002.6 -
25/06:14pm 9.5 2.5 6.9 84 1.2 WNW 33 69 18 37 1002.8 1002.8 -
25/06:08pm 10.1 4.2 7.7 85 1.2 NW 28 48 15 26 1002.8 1002.8 -
25/06:00pm 10.3 5.1 7.2 81 1.5 NW 24 46 13 25 1001.9 1001.9 -
25/05:40pm 11.6 5.3 5.9 68 2.7 NNW 28 48 15 26 1000.5 1000.5 -
25/05:30pm 11.8 5.8 5.4 65 3.0 NNW 26 54 14 29 1000.2 1000.2 -
25/05:00pm 11.7 4.9 5.1 64 3.0 N 30 52 16 28 1000.6 1000.6 -
25/04:30pm 12.4 5.8 4.1 57 3.7 NNW 28 50 15 27 1001.3 1001.3 -
25/04:00pm 12.4 5.7 3.9 56 3.8 NNW 28 46 15 25 1001.5 1001.5 -
25/03:32pm 12.5 4.8 3.2 53 4.1 NNW 33 54 18 29 1001.8 1001.8 -
25/03:30pm 12.6 5.1 3.6 54 4.0 NNW 32 48 17 26 1001.9 1001.9 -
25/03:00pm 12.4 5.7 3.9 56 3.8 NNW 28 50 15 27 1002.3 1002.3 -
25/02:59pm 12.4 5.7 3.9 56 3.8 NNW 28 50 15 27 1002.4 1002.4 -
25/02:30pm 12.4 5.7 3.6 55 3.9 NNW 28 43 15 23 1003.0 1003.0 -
25/02:00pm 13.2 8.4 4.6 56 4.0 NNW 19 35 10 19 1003.9 1004.0 -
25/01:30pm 13.0 8.7 5.2 59 3.6 NNW 17 35 9 19 1004.6 1004.7 -
25/01:00pm 12.1 7.2 5.0 62 3.3 NW 20 37 11 20 1005.7 1005.8 -
25/12:30pm 12.3 6.7 5.5 63 3.2 NW 24 43 13 23 1006.4 1006.5 -
25/12:20pm 12.7 6.3 5.4 61 3.4 NW 28 46 15 25 1006.7 1006.8 -
25/12:00pm 12.6 7.2 6.4 66 3.0 NW 24 39 13 21 1006.7 1006.8 -

Latest Capital City Observations: Canberra | Sydney | Melbourne | Brisbane | Adelaide | Perth | Hobart | Darwin

Other Formats:

Comma delimited format used in spreadsheet applications
http://www.bom.gov.au/fwo/IDV60901/IDV60901.94898.axf

JavaScript Object Notation format (JSON) in row-major order
http://www.bom.gov.au/fwo/IDV60901/IDV60901.94898.json